sensor_id;sensor_type;location;lat;lon;timestamp;P1;durP1;ratioP1;P2;durP2;ratioP2
69087;SDS011;56190;43.562;5.036;2023-12-20T00:02:07;6.15;;;5.03;;
69087;SDS011;56190;43.562;5.036;2023-12-20T00:04:32;5.28;;;4.70;;
69087;SDS011;56190;43.562;5.036;2023-12-20T00:06:58;6.57;;;4.88;;
69087;SDS011;56190;43.562;5.036;2023-12-20T00:09:23;6.32;;;4.88;;
69087;SDS011;56190;43.562;5.036;2023-12-20T00:11:48;5.18;;;4.63;;
69087;SDS011;56190;43.562;5.036;2023-12-20T00:14:13;5.75;;;4.95;;
69087;SDS011;56190;43.562;5.036;2023-12-20T00:16:39;6.28;;;4.60;;
69087;SDS011;56190;43.562;5.036;2023-12-20T00:19:04;5.35;;;4.70;;
69087;SDS011;56190;43.562;5.036;2023-12-20T00:21:30;7.20;;;4.07;;
69087;SDS011;56190;43.562;5.036;2023-12-20T00:23:55;4.68;;;3.92;;
69087;SDS011;56190;43.562;5.036;2023-12-20T00:26:20;5.57;;;4.80;;
69087;SDS011;56190;43.562;5.036;2023-12-20T00:28:46;7.22;;;4.47;;
69087;SDS011;56190;43.562;5.036;2023-12-20T00:31:11;4.97;;;4.03;;
69087;SDS011;56190;43.562;5.036;2023-12-20T00:33:36;5.85;;;4.13;;
69087;SDS011;56190;43.562;5.036;2023-12-20T00:36:01;5.30;;;4.50;;
69087;SDS011;56190;43.562;5.036;2023-12-20T00:38:27;5.82;;;4.40;;
69087;SDS011;56190;43.562;5.036;2023-12-20T00:40:52;5.43;;;4.20;;
69087;SDS011;56190;43.562;5.036;2023-12-20T00:43:17;8.43;;;4.63;;
69087;SDS011;56190;43.562;5.036;2023-12-20T00:45:43;5.78;;;5.03;;
69087;SDS011;56190;43.562;5.036;2023-12-20T00:48:08;5.28;;;4.40;;
69087;SDS011;56190;43.562;5.036;2023-12-20T00:50:33;4.78;;;4.03;;
69087;SDS011;56190;43.562;5.036;2023-12-20T00:52:59;7.65;;;4.80;;
69087;SDS011;56190;43.562;5.036;2023-12-20T00:55:24;5.28;;;4.50;;
69087;SDS011;56190;43.562;5.036;2023-12-20T00:57:49;6.45;;;4.35;;
69087;SDS011;56190;43.562;5.036;2023-12-20T01:00:15;5.78;;;4.38;;
69087;SDS011;56190;43.562;5.036;2023-12-20T01:02:40;5.10;;;4.10;;
69087;SDS011;56190;43.562;5.036;2023-12-20T01:05:06;4.82;;;4.13;;
69087;SDS011;56190;43.562;5.036;2023-12-20T01:07:32;5.60;;;4.60;;
69087;SDS011;56190;43.562;5.036;2023-12-20T01:09:57;4.40;;;4.00;;
69087;SDS011;56190;43.562;5.036;2023-12-20T01:12:22;5.55;;;4.20;;
69087;SDS011;56190;43.562;5.036;2023-12-20T01:14:48;5.93;;;4.40;;
69087;SDS011;56190;43.562;5.036;2023-12-20T01:17:13;4.57;;;4.18;;
69087;SDS011;56190;43.562;5.036;2023-12-20T01:19:39;4.45;;;3.97;;
69087;SDS011;56190;43.562;5.036;2023-12-20T01:22:04;4.25;;;3.35;;
69087;SDS011;56190;43.562;5.036;2023-12-20T01:24:29;4.68;;;3.70;;
69087;SDS011;56190;43.562;5.036;2023-12-20T01:26:54;4.53;;;3.50;;
69087;SDS011;56190;43.562;5.036;2023-12-20T01:29:20;4.53;;;3.58;;
69087;SDS011;56190;43.562;5.036;2023-12-20T01:31:45;4.55;;;3.65;;
69087;SDS011;56190;43.562;5.036;2023-12-20T01:34:11;4.05;;;3.17;;
69087;SDS011;56190;43.562;5.036;2023-12-20T01:36:36;3.90;;;3.08;;
69087;SDS011;56190;43.562;5.036;2023-12-20T01:39:01;4.00;;;3.45;;
69087;SDS011;56190;43.562;5.036;2023-12-20T01:41:26;4.65;;;3.45;;
69087;SDS011;56190;43.562;5.036;2023-12-20T01:43:52;4.05;;;3.50;;
69087;SDS011;56190;43.562;5.036;2023-12-20T01:46:18;5.13;;;3.63;;
69087;SDS011;56190;43.562;5.036;2023-12-20T01:48:43;3.97;;;3.40;;
69087;SDS011;56190;43.562;5.036;2023-12-20T01:51:09;4.53;;;3.75;;
69087;SDS011;56190;43.562;5.036;2023-12-20T01:53:35;3.70;;;3.30;;
69087;SDS011;56190;43.562;5.036;2023-12-20T01:56:01;4.03;;;3.08;;
69087;SDS011;56190;43.562;5.036;2023-12-20T01:58:26;4.43;;;3.55;;
69087;SDS011;56190;43.562;5.036;2023-12-20T02:00:52;4.75;;;3.80;;
69087;SDS011;56190;43.562;5.036;2023-12-20T02:03:18;4.82;;;3.80;;
69087;SDS011;56190;43.562;5.036;2023-12-20T02:05:43;4.47;;;3.28;;
69087;SDS011;56190;43.562;5.036;2023-12-20T02:08:09;4.18;;;3.15;;
69087;SDS011;56190;43.562;5.036;2023-12-20T02:10:34;4.47;;;3.50;;
69087;SDS011;56190;43.562;5.036;2023-12-20T02:13:00;5.88;;;3.60;;
69087;SDS011;56190;43.562;5.036;2023-12-20T02:15:25;4.55;;;3.40;;
69087;SDS011;56190;43.562;5.036;2023-12-20T02:17:50;5.40;;;3.45;;
69087;SDS011;56190;43.562;5.036;2023-12-20T02:20:16;4.43;;;3.40;;
69087;SDS011;56190;43.562;5.036;2023-12-20T02:22:41;4.63;;;3.42;;
69087;SDS011;56190;43.562;5.036;2023-12-20T02:25:06;4.82;;;3.30;;
69087;SDS011;56190;43.562;5.036;2023-12-20T02:27:32;3.30;;;3.00;;
69087;SDS011;56190;43.562;5.036;2023-12-20T02:29:57;4.43;;;3.28;;
69087;SDS011;56190;43.562;5.036;2023-12-20T02:32:22;4.57;;;3.30;;
69087;SDS011;56190;43.562;5.036;2023-12-20T02:34:51;4.38;;;3.28;;
69087;SDS011;56190;43.562;5.036;2023-12-20T02:37:16;4.78;;;3.65;;
69087;SDS011;56190;43.562;5.036;2023-12-20T02:39:41;3.72;;;3.08;;
69087;SDS011;56190;43.562;5.036;2023-12-20T02:42:07;3.70;;;3.28;;
69087;SDS011;56190;43.562;5.036;2023-12-20T02:44:32;4.10;;;3.70;;
69087;SDS011;56190;43.562;5.036;2023-12-20T02:46:57;7.28;;;5.57;;
69087;SDS011;56190;43.562;5.036;2023-12-20T02:49:22;5.25;;;4.20;;
69087;SDS011;56190;43.562;5.036;2023-12-20T02:51:48;5.10;;;3.95;;
69087;SDS011;56190;43.562;5.036;2023-12-20T02:54:13;6.43;;;5.22;;
69087;SDS011;56190;43.562;5.036;2023-12-20T02:56:38;6.15;;;5.07;;
69087;SDS011;56190;43.562;5.036;2023-12-20T02:59:04;5.47;;;3.70;;
69087;SDS011;56190;43.562;5.036;2023-12-20T03:01:31;4.65;;;4.00;;
69087;SDS011;56190;43.562;5.036;2023-12-20T03:03:56;5.25;;;3.40;;
69087;SDS011;56190;43.562;5.036;2023-12-20T03:06:21;4.50;;;3.17;;
69087;SDS011;56190;43.562;5.036;2023-12-20T03:08:47;3.95;;;3.33;;
69087;SDS011;56190;43.562;5.036;2023-12-20T03:11:12;4.88;;;3.30;;
69087;SDS011;56190;43.562;5.036;2023-12-20T03:13:37;3.83;;;3.20;;
69087;SDS011;56190;43.562;5.036;2023-12-20T03:16:12;4.45;;;3.28;;
69087;SDS011;56190;43.562;5.036;2023-12-20T03:18:38;5.63;;;3.10;;
69087;SDS011;56190;43.562;5.036;2023-12-20T03:21:06;4.05;;;3.28;;
69087;SDS011;56190;43.562;5.036;2023-12-20T03:23:31;3.40;;;3.08;;
69087;SDS011;56190;43.562;5.036;2023-12-20T03:25:58;5.00;;;3.80;;
69087;SDS011;56190;43.562;5.036;2023-12-20T03:28:24;8.70;;;6.30;;
69087;SDS011;56190;43.562;5.036;2023-12-20T03:30:49;11.27;;;7.97;;
69087;SDS011;56190;43.562;5.036;2023-12-20T03:33:15;7.65;;;6.70;;
69087;SDS011;56190;43.562;5.036;2023-12-20T03:35:40;5.30;;;4.20;;
69087;SDS011;56190;43.562;5.036;2023-12-20T03:38:05;4.28;;;3.88;;
69087;SDS011;56190;43.562;5.036;2023-12-20T03:40:31;8.95;;;5.97;;
69087;SDS011;56190;43.562;5.036;2023-12-20T03:42:56;8.15;;;6.93;;
69087;SDS011;56190;43.562;5.036;2023-12-20T03:45:21;5.65;;;4.82;;
69087;SDS011;56190;43.562;5.036;2023-12-20T03:47:46;4.65;;;3.50;;
69087;SDS011;56190;43.562;5.036;2023-12-20T03:50:12;4.63;;;3.90;;
69087;SDS011;56190;43.562;5.036;2023-12-20T03:52:37;5.05;;;4.10;;
69087;SDS011;56190;43.562;5.036;2023-12-20T03:55:03;6.07;;;5.10;;
69087;SDS011;56190;43.562;5.036;2023-12-20T03:57:28;6.40;;;5.53;;
69087;SDS011;56190;43.562;5.036;2023-12-20T03:59:53;5.05;;;3.42;;
69087;SDS011;56190;43.562;5.036;2023-12-20T04:02:19;4.15;;;3.47;;
69087;SDS011;56190;43.562;5.036;2023-12-20T04:04:44;3.45;;;2.58;;
69087;SDS011;56190;43.562;5.036;2023-12-20T04:07:09;2.85;;;2.30;;
69087;SDS011;56190;43.562;5.036;2023-12-20T04:09:34;2.70;;;2.20;;
69087;SDS011;56190;43.562;5.036;2023-12-20T04:11:59;3.13;;;1.90;;
69087;SDS011;56190;43.562;5.036;2023-12-20T04:14:25;3.58;;;2.53;;
69087;SDS011;56190;43.562;5.036;2023-12-20T04:16:50;3.25;;;2.20;;
69087;SDS011;56190;43.562;5.036;2023-12-20T04:19:15;2.90;;;2.50;;
69087;SDS011;56190;43.562;5.036;2023-12-20T04:21:40;2.42;;;2.22;;
69087;SDS011;56190;43.562;5.036;2023-12-20T04:24:06;5.90;;;2.95;;
69087;SDS011;56190;43.562;5.036;2023-12-20T04:26:31;4.22;;;3.83;;
69087;SDS011;56190;43.562;5.036;2023-12-20T04:28:56;2.90;;;2.60;;
69087;SDS011;56190;43.562;5.036;2023-12-20T04:31:22;1.98;;;1.70;;
69087;SDS011;56190;43.562;5.036;2023-12-20T04:33:47;2.53;;;2.10;;
69087;SDS011;56190;43.562;5.036;2023-12-20T04:36:12;2.33;;;1.65;;
69087;SDS011;56190;43.562;5.036;2023-12-20T04:38:38;2.20;;;2.00;;
69087;SDS011;56190;43.562;5.036;2023-12-20T04:41:03;2.35;;;1.80;;
69087;SDS011;56190;43.562;5.036;2023-12-20T04:43:28;2.45;;;1.38;;
69087;SDS011;56190;43.562;5.036;2023-12-20T04:45:54;1.88;;;1.67;;
69087;SDS011;56190;43.562;5.036;2023-12-20T04:48:20;1.30;;;1.20;;
69087;SDS011;56190;43.562;5.036;2023-12-20T04:50:45;1.25;;;1.05;;
69087;SDS011;56190;43.562;5.036;2023-12-20T04:53:10;1.00;;;1.00;;
69087;SDS011;56190;43.562;5.036;2023-12-20T04:55:35;1.13;;;1.00;;
69087;SDS011;56190;43.562;5.036;2023-12-20T04:58:01;2.00;;;0.90;;
69087;SDS011;56190;43.562;5.036;2023-12-20T05:00:26;1.23;;;1.10;;
69087;SDS011;56190;43.562;5.036;2023-12-20T05:02:52;2.03;;;1.00;;
69087;SDS011;56190;43.562;5.036;2023-12-20T05:05:17;1.23;;;1.13;;
69087;SDS011;56190;43.562;5.036;2023-12-20T05:07:43;0.95;;;0.85;;
69087;SDS011;56190;43.562;5.036;2023-12-20T05:10:08;1.30;;;1.00;;
69087;SDS011;56190;43.562;5.036;2023-12-20T05:12:34;1.20;;;1.10;;
69087;SDS011;56190;43.562;5.036;2023-12-20T05:14:59;0.90;;;0.75;;
69087;SDS011;56190;43.562;5.036;2023-12-20T05:17:25;4.88;;;0.80;;
69087;SDS011;56190;43.562;5.036;2023-12-20T05:19:50;1.42;;;1.33;;
69087;SDS011;56190;43.562;5.036;2023-12-20T05:22:16;2.28;;;0.90;;
69087;SDS011;56190;43.562;5.036;2023-12-20T05:24:42;1.10;;;1.00;;
69087;SDS011;56190;43.562;5.036;2023-12-20T05:27:07;1.45;;;0.80;;
69087;SDS011;56190;43.562;5.036;2023-12-20T05:29:32;1.85;;;1.58;;
69087;SDS011;56190;43.562;5.036;2023-12-20T05:31:58;2.20;;;1.63;;
69087;SDS011;56190;43.562;5.036;2023-12-20T05:34:23;3.75;;;3.17;;
69087;SDS011;56190;43.562;5.036;2023-12-20T05:36:49;5.65;;;4.78;;
69087;SDS011;56190;43.562;5.036;2023-12-20T05:39:14;4.40;;;3.53;;
69087;SDS011;56190;43.562;5.036;2023-12-20T05:41:39;2.35;;;2.15;;
69087;SDS011;56190;43.562;5.036;2023-12-20T05:44:05;1.33;;;1.15;;
69087;SDS011;56190;43.562;5.036;2023-12-20T05:46:30;0.73;;;0.73;;
69087;SDS011;56190;43.562;5.036;2023-12-20T05:48:55;1.58;;;0.95;;
69087;SDS011;56190;43.562;5.036;2023-12-20T05:51:20;2.42;;;1.13;;
69087;SDS011;56190;43.562;5.036;2023-12-20T05:53:46;1.98;;;1.58;;
69087;SDS011;56190;43.562;5.036;2023-12-20T05:56:11;3.60;;;2.38;;
69087;SDS011;56190;43.562;5.036;2023-12-20T05:58:38;2.85;;;2.00;;
69087;SDS011;56190;43.562;5.036;2023-12-20T06:01:04;2.33;;;1.73;;
69087;SDS011;56190;43.562;5.036;2023-12-20T06:03:29;1.83;;;0.90;;
69087;SDS011;56190;43.562;5.036;2023-12-20T06:05:55;1.70;;;1.00;;
69087;SDS011;56190;43.562;5.036;2023-12-20T06:08:20;2.55;;;1.70;;
69087;SDS011;56190;43.562;5.036;2023-12-20T06:10:45;1.48;;;1.13;;
69087;SDS011;56190;43.562;5.036;2023-12-20T06:13:11;2.17;;;0.70;;
69087;SDS011;56190;43.562;5.036;2023-12-20T06:15:38;1.17;;;1.00;;
69087;SDS011;56190;43.562;5.036;2023-12-20T06:18:03;2.30;;;1.27;;
69087;SDS011;56190;43.562;5.036;2023-12-20T06:20:28;1.80;;;1.23;;
69087;SDS011;56190;43.562;5.036;2023-12-20T06:22:53;2.50;;;1.10;;
69087;SDS011;56190;43.562;5.036;2023-12-20T06:25:19;1.05;;;0.80;;
69087;SDS011;56190;43.562;5.036;2023-12-20T06:27:44;1.20;;;0.90;;
69087;SDS011;56190;43.562;5.036;2023-12-20T06:30:09;1.33;;;0.70;;
69087;SDS011;56190;43.562;5.036;2023-12-20T06:32:35;0.90;;;0.80;;
69087;SDS011;56190;43.562;5.036;2023-12-20T06:35:00;0.93;;;0.90;;
69087;SDS011;56190;43.562;5.036;2023-12-20T06:37:25;1.13;;;0.90;;
69087;SDS011;56190;43.562;5.036;2023-12-20T06:39:51;1.25;;;1.15;;
69087;SDS011;56190;43.562;5.036;2023-12-20T06:42:16;1.27;;;0.80;;
69087;SDS011;56190;43.562;5.036;2023-12-20T06:44:41;2.15;;;0.85;;
69087;SDS011;56190;43.562;5.036;2023-12-20T06:47:07;1.38;;;0.70;;
69087;SDS011;56190;43.562;5.036;2023-12-20T06:49:33;0.85;;;0.63;;
69087;SDS011;56190;43.562;5.036;2023-12-20T06:51:58;1.52;;;0.50;;
69087;SDS011;56190;43.562;5.036;2023-12-20T06:54:23;0.93;;;0.80;;
69087;SDS011;56190;43.562;5.036;2023-12-20T06:56:49;2.88;;;0.90;;
69087;SDS011;56190;43.562;5.036;2023-12-20T06:59:14;0.77;;;0.77;;
69087;SDS011;56190;43.562;5.036;2023-12-20T07:01:39;0.90;;;0.90;;
69087;SDS011;56190;43.562;5.036;2023-12-20T07:04:04;1.17;;;0.93;;
69087;SDS011;56190;43.562;5.036;2023-12-20T07:06:30;2.40;;;1.50;;
69087;SDS011;56190;43.562;5.036;2023-12-20T07:08:55;1.40;;;1.10;;
69087;SDS011;56190;43.562;5.036;2023-12-20T07:11:20;2.30;;;1.65;;
69087;SDS011;56190;43.562;5.036;2023-12-20T07:13:46;1.77;;;1.23;;
69087;SDS011;56190;43.562;5.036;2023-12-20T07:16:11;1.63;;;0.90;;
69087;SDS011;56190;43.562;5.036;2023-12-20T07:18:36;1.77;;;0.85;;
69087;SDS011;56190;43.562;5.036;2023-12-20T07:21:02;1.50;;;1.38;;
69087;SDS011;56190;43.562;5.036;2023-12-20T07:23:27;1.30;;;1.20;;
69087;SDS011;56190;43.562;5.036;2023-12-20T07:25:53;2.55;;;1.50;;
69087;SDS011;56190;43.562;5.036;2023-12-20T07:28:18;1.30;;;1.20;;
69087;SDS011;56190;43.562;5.036;2023-12-20T07:30:43;2.95;;;2.60;;
69087;SDS011;56190;43.562;5.036;2023-12-20T07:33:08;2.72;;;2.40;;
69087;SDS011;56190;43.562;5.036;2023-12-20T07:35:34;2.22;;;1.50;;
69087;SDS011;56190;43.562;5.036;2023-12-20T07:37:59;1.88;;;1.33;;
69087;SDS011;56190;43.562;5.036;2023-12-20T07:40:25;3.15;;;2.35;;
69087;SDS011;56190;43.562;5.036;2023-12-20T07:42:50;3.90;;;2.50;;
69087;SDS011;56190;43.562;5.036;2023-12-20T07:45:15;5.53;;;3.92;;
69087;SDS011;56190;43.562;5.036;2023-12-20T07:47:40;3.83;;;2.70;;
69087;SDS011;56190;43.562;5.036;2023-12-20T07:50:06;4.07;;;3.63;;
69087;SDS011;56190;43.562;5.036;2023-12-20T07:52:31;5.47;;;4.90;;
69087;SDS011;56190;43.562;5.036;2023-12-20T07:54:57;4.05;;;3.10;;
69087;SDS011;56190;43.562;5.036;2023-12-20T07:57:23;3.45;;;2.17;;
69087;SDS011;56190;43.562;5.036;2023-12-20T07:59:48;2.42;;;2.10;;
69087;SDS011;56190;43.562;5.036;2023-12-20T08:02:13;2.38;;;1.17;;
69087;SDS011;56190;43.562;5.036;2023-12-20T08:04:38;2.10;;;1.63;;
69087;SDS011;56190;43.562;5.036;2023-12-20T08:07:04;1.60;;;1.45;;
69087;SDS011;56190;43.562;5.036;2023-12-20T08:09:29;1.50;;;1.10;;
69087;SDS011;56190;43.562;5.036;2023-12-20T08:11:55;2.60;;;1.00;;
69087;SDS011;56190;43.562;5.036;2023-12-20T08:14:20;1.58;;;1.48;;
69087;SDS011;56190;43.562;5.036;2023-12-20T08:16:45;0.98;;;0.90;;
69087;SDS011;56190;43.562;5.036;2023-12-20T08:19:11;1.67;;;1.58;;
69087;SDS011;56190;43.562;5.036;2023-12-20T08:21:36;1.77;;;1.48;;
69087;SDS011;56190;43.562;5.036;2023-12-20T08:24:01;2.10;;;1.60;;
69087;SDS011;56190;43.562;5.036;2023-12-20T08:26:26;3.35;;;2.10;;
69087;SDS011;56190;43.562;5.036;2023-12-20T08:28:52;2.20;;;2.00;;
69087;SDS011;56190;43.562;5.036;2023-12-20T08:31:17;2.58;;;1.83;;
69087;SDS011;56190;43.562;5.036;2023-12-20T08:33:46;2.35;;;2.15;;
69087;SDS011;56190;43.562;5.036;2023-12-20T08:36:12;6.78;;;2.90;;
69087;SDS011;56190;43.562;5.036;2023-12-20T08:38:37;4.22;;;3.83;;
69087;SDS011;56190;43.562;5.036;2023-12-20T08:41:02;2.78;;;2.05;;
69087;SDS011;56190;43.562;5.036;2023-12-20T08:43:30;4.43;;;2.63;;
69087;SDS011;56190;43.562;5.036;2023-12-20T08:45:55;1.73;;;1.50;;
69087;SDS011;56190;43.562;5.036;2023-12-20T08:48:20;2.88;;;2.15;;
69087;SDS011;56190;43.562;5.036;2023-12-20T08:50:46;3.60;;;3.08;;
69087;SDS011;56190;43.562;5.036;2023-12-20T08:53:13;2.33;;;2.10;;
69087;SDS011;56190;43.562;5.036;2023-12-20T08:55:40;1.60;;;1.40;;
69087;SDS011;56190;43.562;5.036;2023-12-20T08:58:05;5.03;;;1.70;;
69087;SDS011;56190;43.562;5.036;2023-12-20T09:00:32;5.18;;;1.63;;
69087;SDS011;56190;43.562;5.036;2023-12-20T09:02:57;2.05;;;1.58;;
69087;SDS011;56190;43.562;5.036;2023-12-20T09:05:22;2.50;;;1.20;;
69087;SDS011;56190;43.562;5.036;2023-12-20T09:07:47;2.25;;;1.70;;
69087;SDS011;56190;43.562;5.036;2023-12-20T09:10:13;1.65;;;1.20;;
69087;SDS011;56190;43.562;5.036;2023-12-20T09:12:38;1.55;;;1.30;;
69087;SDS011;56190;43.562;5.036;2023-12-20T09:15:06;2.05;;;1.30;;
69087;SDS011;56190;43.562;5.036;2023-12-20T09:17:31;2.85;;;2.60;;
69087;SDS011;56190;43.562;5.036;2023-12-20T09:19:56;1.73;;;1.05;;
69087;SDS011;56190;43.562;5.036;2023-12-20T09:22:21;3.05;;;2.75;;
69087;SDS011;56190;43.562;5.036;2023-12-20T09:24:47;3.58;;;1.65;;
69087;SDS011;56190;43.562;5.036;2023-12-20T09:27:12;3.97;;;2.20;;
69087;SDS011;56190;43.562;5.036;2023-12-20T09:29:37;2.72;;;1.42;;
69087;SDS011;56190;43.562;5.036;2023-12-20T09:32:03;2.08;;;1.70;;
69087;SDS011;56190;43.562;5.036;2023-12-20T09:34:28;3.20;;;1.73;;
69087;SDS011;56190;43.562;5.036;2023-12-20T09:36:54;3.20;;;2.80;;
69087;SDS011;56190;43.562;5.036;2023-12-20T09:39:20;2.10;;;1.90;;
69087;SDS011;56190;43.562;5.036;2023-12-20T09:41:49;4.47;;;2.80;;
69087;SDS011;56190;43.562;5.036;2023-12-20T09:44:16;7.45;;;4.10;;
69087;SDS011;56190;43.562;5.036;2023-12-20T09:46:46;4.68;;;3.22;;
69087;SDS011;56190;43.562;5.036;2023-12-20T09:49:14;3.70;;;2.38;;
69087;SDS011;56190;43.562;5.036;2023-12-20T09:51:39;5.32;;;3.42;;
69087;SDS011;56190;43.562;5.036;2023-12-20T09:54:04;3.28;;;2.60;;
69087;SDS011;56190;43.562;5.036;2023-12-20T09:56:30;5.75;;;3.10;;
69087;SDS011;56190;43.562;5.036;2023-12-20T09:58:55;4.00;;;2.63;;
69087;SDS011;56190;43.562;5.036;2023-12-20T10:01:21;2.33;;;1.30;;
69087;SDS011;56190;43.562;5.036;2023-12-20T10:03:46;4.82;;;3.70;;
69087;SDS011;56190;43.562;5.036;2023-12-20T10:06:11;6.03;;;4.75;;
69087;SDS011;56190;43.562;5.036;2023-12-20T10:08:37;2.88;;;2.00;;
69087;SDS011;56190;43.562;5.036;2023-12-20T10:11:02;2.80;;;2.33;;
69087;SDS011;56190;43.562;5.036;2023-12-20T10:13:29;4.13;;;2.60;;
69087;SDS011;56190;43.562;5.036;2023-12-20T10:15:54;3.08;;;1.80;;
69087;SDS011;56190;43.562;5.036;2023-12-20T10:18:20;6.03;;;3.00;;
69087;SDS011;56190;43.562;5.036;2023-12-20T10:20:45;13.43;;;3.17;;
69087;SDS011;56190;43.562;5.036;2023-12-20T10:23:11;2.30;;;1.58;;
69087;SDS011;56190;43.562;5.036;2023-12-20T10:25:37;4.15;;;1.98;;
69087;SDS011;56190;43.562;5.036;2023-12-20T10:28:09;4.03;;;2.00;;
69087;SDS011;56190;43.562;5.036;2023-12-20T10:30:34;9.57;;;2.65;;
69087;SDS011;56190;43.562;5.036;2023-12-20T10:33:00;2.17;;;1.02;;
69087;SDS011;56190;43.562;5.036;2023-12-20T10:35:26;1.60;;;1.50;;
69087;SDS011;56190;43.562;5.036;2023-12-20T10:37:52;3.10;;;1.08;;
69087;SDS011;56190;43.562;5.036;2023-12-20T10:40:20;1.67;;;1.10;;
69087;SDS011;56190;43.562;5.036;2023-12-20T10:42:46;4.53;;;1.60;;
69087;SDS011;56190;43.562;5.036;2023-12-20T10:45:12;5.82;;;1.40;;
69087;SDS011;56190;43.562;5.036;2023-12-20T10:47:37;3.13;;;1.20;;
69087;SDS011;56190;43.562;5.036;2023-12-20T10:50:05;1.98;;;1.30;;
69087;SDS011;56190;43.562;5.036;2023-12-20T10:52:30;2.00;;;1.20;;
69087;SDS011;56190;43.562;5.036;2023-12-20T10:54:57;3.53;;;1.35;;
69087;SDS011;56190;43.562;5.036;2023-12-20T10:57:22;3.53;;;1.40;;
69087;SDS011;56190;43.562;5.036;2023-12-20T10:59:48;5.55;;;1.10;;
69087;SDS011;56190;43.562;5.036;2023-12-20T11:02:14;2.60;;;1.30;;
69087;SDS011;56190;43.562;5.036;2023-12-20T11:08:22;4.97;;;1.50;;
69087;SDS011;56190;43.562;5.036;2023-12-20T11:10:26;2.53;;;1.50;;
69087;SDS011;56190;43.562;5.036;2023-12-20T11:12:54;3.15;;;1.83;;
69087;SDS011;56190;43.562;5.036;2023-12-20T11:15:22;2.63;;;1.75;;
69087;SDS011;56190;43.562;5.036;2023-12-20T11:17:56;3.78;;;2.40;;
69087;SDS011;56190;43.562;5.036;2023-12-20T11:20:34;3.35;;;1.58;;
69087;SDS011;56190;43.562;5.036;2023-12-20T11:23:00;2.13;;;1.58;;
69087;SDS011;56190;43.562;5.036;2023-12-20T11:25:25;1.77;;;1.40;;
69087;SDS011;56190;43.562;5.036;2023-12-20T11:28:10;1.73;;;1.40;;
69087;SDS011;56190;43.562;5.036;2023-12-20T11:30:45;4.13;;;1.52;;
69087;SDS011;56190;43.562;5.036;2023-12-20T11:33:11;3.30;;;1.60;;
69087;SDS011;56190;43.562;5.036;2023-12-20T11:35:37;2.33;;;1.98;;
69087;SDS011;56190;43.562;5.036;2023-12-20T11:38:04;2.13;;;1.92;;
69087;SDS011;56190;43.562;5.036;2023-12-20T11:40:30;3.03;;;1.67;;
69087;SDS011;56190;43.562;5.036;2023-12-20T11:42:58;2.92;;;1.70;;
69087;SDS011;56190;43.562;5.036;2023-12-20T11:45:24;3.53;;;1.90;;
69087;SDS011;56190;43.562;5.036;2023-12-20T11:47:50;2.35;;;1.48;;
69087;SDS011;56190;43.562;5.036;2023-12-20T11:50:16;1.75;;;1.58;;
69087;SDS011;56190;43.562;5.036;2023-12-20T11:52:41;3.22;;;1.42;;
69087;SDS011;56190;43.562;5.036;2023-12-20T11:55:06;5.72;;;1.60;;
69087;SDS011;56190;43.562;5.036;2023-12-20T11:57:33;11.18;;;1.95;;
69087;SDS011;56190;43.562;5.036;2023-12-20T11:59:59;2.13;;;1.20;;
69087;SDS011;56190;43.562;5.036;2023-12-20T12:02:24;3.70;;;1.83;;
69087;SDS011;56190;43.562;5.036;2023-12-20T12:04:50;11.55;;;1.50;;
69087;SDS011;56190;43.562;5.036;2023-12-20T12:07:18;4.40;;;1.70;;
69087;SDS011;56190;43.562;5.036;2023-12-20T12:09:43;2.17;;;1.73;;
69087;SDS011;56190;43.562;5.036;2023-12-20T12:12:09;3.00;;;1.40;;
69087;SDS011;56190;43.562;5.036;2023-12-20T12:14:34;4.88;;;1.50;;
69087;SDS011;56190;43.562;5.036;2023-12-20T12:17:02;4.72;;;1.48;;
69087;SDS011;56190;43.562;5.036;2023-12-20T12:19:27;3.72;;;1.42;;
69087;SDS011;56190;43.562;5.036;2023-12-20T12:22:07;3.97;;;1.55;;
69087;SDS011;56190;43.562;5.036;2023-12-20T12:24:34;2.88;;;1.67;;
69087;SDS011;56190;43.562;5.036;2023-12-20T12:26:59;2.28;;;1.42;;
69087;SDS011;56190;43.562;5.036;2023-12-20T12:29:24;3.78;;;1.45;;
69087;SDS011;56190;43.562;5.036;2023-12-20T12:31:50;3.90;;;1.48;;
69087;SDS011;56190;43.562;5.036;2023-12-20T12:34:15;3.85;;;1.38;;
69087;SDS011;56190;43.562;5.036;2023-12-20T12:36:41;4.45;;;1.58;;
69087;SDS011;56190;43.562;5.036;2023-12-20T12:39:06;3.45;;;1.30;;
69087;SDS011;56190;43.562;5.036;2023-12-20T12:41:31;3.38;;;1.17;;
69087;SDS011;56190;43.562;5.036;2023-12-20T12:43:57;2.35;;;1.27;;
69087;SDS011;56190;43.562;5.036;2023-12-20T12:46:22;2.88;;;1.15;;
69087;SDS011;56190;43.562;5.036;2023-12-20T12:48:47;4.35;;;1.60;;
69087;SDS011;56190;43.562;5.036;2023-12-20T12:51:14;4.30;;;1.48;;
69087;SDS011;56190;43.562;5.036;2023-12-20T12:53:39;4.15;;;1.50;;
69087;SDS011;56190;43.562;5.036;2023-12-20T12:56:05;4.88;;;1.50;;
69087;SDS011;56190;43.562;5.036;2023-12-20T12:58:30;3.85;;;1.50;;
69087;SDS011;56190;43.562;5.036;2023-12-20T13:00:55;1.48;;;1.25;;
69087;SDS011;56190;43.562;5.036;2023-12-20T13:03:21;2.60;;;1.17;;
69087;SDS011;56190;43.562;5.036;2023-12-20T13:05:46;2.92;;;1.38;;
69087;SDS011;56190;43.562;5.036;2023-12-20T13:08:13;5.50;;;2.08;;
69087;SDS011;56190;43.562;5.036;2023-12-20T13:10:38;7.18;;;2.15;;
69087;SDS011;56190;43.562;5.036;2023-12-20T13:13:04;2.17;;;1.45;;
69087;SDS011;56190;43.562;5.036;2023-12-20T13:15:29;7.03;;;3.13;;
69087;SDS011;56190;43.562;5.036;2023-12-20T13:17:55;4.25;;;1.80;;
69087;SDS011;56190;43.562;5.036;2023-12-20T13:20:20;4.88;;;2.75;;
69087;SDS011;56190;43.562;5.036;2023-12-20T13:22:47;11.13;;;4.13;;
69087;SDS011;56190;43.562;5.036;2023-12-20T13:25:12;2.20;;;1.30;;
69087;SDS011;56190;43.562;5.036;2023-12-20T13:27:38;1.88;;;1.30;;
69087;SDS011;56190;43.562;5.036;2023-12-20T13:30:03;3.67;;;1.63;;
69087;SDS011;56190;43.562;5.036;2023-12-20T13:32:28;5.75;;;1.65;;
69087;SDS011;56190;43.562;5.036;2023-12-20T13:34:54;2.38;;;1.38;;
69087;SDS011;56190;43.562;5.036;2023-12-20T13:37:19;3.28;;;1.15;;
69087;SDS011;56190;43.562;5.036;2023-12-20T13:39:45;3.47;;;1.48;;
69087;SDS011;56190;43.562;5.036;2023-12-20T13:42:11;2.13;;;1.00;;
69087;SDS011;56190;43.562;5.036;2023-12-20T13:44:36;2.95;;;1.40;;
69087;SDS011;56190;43.562;5.036;2023-12-20T13:47:01;3.33;;;1.27;;
69087;SDS011;56190;43.562;5.036;2023-12-20T13:49:27;2.90;;;1.10;;
69087;SDS011;56190;43.562;5.036;2023-12-20T13:51:53;3.22;;;0.90;;
69087;SDS011;56190;43.562;5.036;2023-12-20T13:54:19;3.55;;;1.00;;
69087;SDS011;56190;43.562;5.036;2023-12-20T13:56:46;1.90;;;0.90;;
69087;SDS011;56190;43.562;5.036;2023-12-20T13:59:12;3.42;;;1.17;;
69087;SDS011;56190;43.562;5.036;2023-12-20T14:01:38;4.65;;;1.17;;
69087;SDS011;56190;43.562;5.036;2023-12-20T14:04:03;4.40;;;1.58;;
69087;SDS011;56190;43.562;5.036;2023-12-20T14:06:28;4.18;;;1.35;;
69087;SDS011;56190;43.562;5.036;2023-12-20T14:08:54;6.13;;;1.30;;
69087;SDS011;56190;43.562;5.036;2023-12-20T14:11:19;3.15;;;0.90;;
69087;SDS011;56190;43.562;5.036;2023-12-20T14:13:45;1.38;;;0.88;;
69087;SDS011;56190;43.562;5.036;2023-12-20T14:16:10;4.00;;;1.23;;
69087;SDS011;56190;43.562;5.036;2023-12-20T14:18:35;2.50;;;1.45;;
69087;SDS011;56190;43.562;5.036;2023-12-20T14:21:01;2.90;;;1.17;;
69087;SDS011;56190;43.562;5.036;2023-12-20T14:23:26;5.50;;;1.23;;
69087;SDS011;56190;43.562;5.036;2023-12-20T14:25:51;3.72;;;1.30;;
69087;SDS011;56190;43.562;5.036;2023-12-20T14:28:17;11.35;;;1.80;;
69087;SDS011;56190;43.562;5.036;2023-12-20T14:30:42;4.25;;;1.08;;
69087;SDS011;56190;43.562;5.036;2023-12-20T14:33:08;3.03;;;1.35;;
69087;SDS011;56190;43.562;5.036;2023-12-20T14:35:33;4.28;;;1.45;;
69087;SDS011;56190;43.562;5.036;2023-12-20T14:37:58;12.07;;;1.90;;
69087;SDS011;56190;43.562;5.036;2023-12-20T14:40:23;3.55;;;1.58;;
69087;SDS011;56190;43.562;5.036;2023-12-20T14:42:49;5.10;;;1.40;;